createdAt,value
2023-03-10T00:04:26.800Z,977.2
2023-03-10T00:14:33.163Z,977.1
2023-03-10T00:24:39.337Z,977
2023-03-10T00:34:45.602Z,976.8
2023-03-10T00:44:51.850Z,976.8
2023-03-10T00:54:58.106Z,976.7
2023-03-10T01:05:04.378Z,976.6
2023-03-10T01:15:10.629Z,976.4
2023-03-10T01:25:16.894Z,976.3
2023-03-10T01:35:23.124Z,976.1
2023-03-10T01:45:29.293Z,975.9
2023-03-10T01:55:35.657Z,975.8
2023-03-10T02:05:41.917Z,975.6
2023-03-10T02:15:48.262Z,975.6
2023-03-10T02:25:54.398Z,975.5
2023-03-10T13:20:08.736Z,974.3
2023-03-10T13:30:14.959Z,974.2
2023-03-10T13:40:21.120Z,974.1
2023-03-10T13:50:27.373Z,974.1
2023-03-10T14:00:33.536Z,974.2
2023-03-10T14:10:39.740Z,973.9
2023-03-10T14:20:45.957Z,974.1
2023-03-10T14:30:52.170Z,974.1
2023-03-10T14:40:58.458Z,974.2
2023-03-10T14:51:04.586Z,974.3
2023-03-10T15:01:10.820Z,974.4
2023-03-10T15:11:17.032Z,974.5
2023-03-10T15:21:23.394Z,974.5
2023-03-10T15:31:29.626Z,974.7
2023-03-10T15:41:35.777Z,974.8
2023-03-10T15:51:42.040Z,975
2023-03-10T16:01:48.222Z,975.3
2023-03-10T16:11:54.442Z,975.3
2023-03-10T16:22:00.715Z,975.3
2023-03-10T16:32:06.900Z,975.7
2023-03-10T16:42:13.098Z,975.8
2023-03-10T16:52:19.346Z,976.1
2023-03-10T17:02:25.624Z,976.4
2023-03-10T17:12:31.894Z,976.6
2023-03-10T17:22:38.211Z,976.8
2023-03-10T17:32:44.607Z,977.2
2023-03-10T17:42:50.826Z,977.2
2023-03-10T17:52:56.915Z,977.5
2023-03-10T18:03:02.232Z,977.3
2023-03-10T18:13:08.509Z,977.5
2023-03-10T18:23:14.781Z,977.9
2023-03-10T18:33:20.972Z,978.5
2023-03-10T18:43:27.418Z,979.2
2023-03-10T18:53:33.687Z,980.1
2023-03-10T19:03:39.956Z,980.4
2023-03-10T19:13:46.236Z,980.7
2023-03-10T19:23:52.493Z,980.8
2023-03-10T19:33:58.711Z,981.4
2023-03-10T19:44:04.973Z,981.6
2023-03-10T19:54:11.245Z,982.3
2023-03-10T20:04:17.492Z,982.7
2023-03-10T20:14:23.759Z,983.4
2023-03-10T20:24:30.035Z,984
2023-03-10T20:34:36.281Z,984.5
2023-03-10T20:44:42.543Z,984.9
2023-03-10T20:54:48.817Z,985.3
2023-03-10T21:04:55.076Z,985.6
2023-03-10T21:15:01.355Z,985.9
2023-03-10T21:25:07.627Z,986.1
2023-03-10T21:35:13.869Z,986.3
2023-03-10T21:45:20.141Z,986.7
2023-03-10T21:55:26.393Z,986.9
2023-03-10T22:05:32.669Z,987.1
2023-03-10T22:15:38.989Z,987.1
2023-03-10T22:25:45.213Z,987.5
2023-03-10T22:35:51.442Z,987.7
2023-03-10T22:45:57.705Z,988
2023-03-10T22:56:03.987Z,988.3
2023-03-10T23:06:10.240Z,988.5
2023-03-10T23:16:16.437Z,988.5
2023-03-10T23:26:22.741Z,988.7
2023-03-10T23:36:28.989Z,988.7
2023-03-10T23:46:35.247Z,988.6
2023-03-10T23:56:41.506Z,988.5
